Jj Callis — WDC9890 — position and weather

sailwx.info

Track history (hours):
 
Tides and Currents Weather Stations Pressure Air Temp Water Temp Dewpoint Dewpoint Depression Visibility Wind Speed Wind Dir Waves Ship Positions

Jj Callis

Owner: Department of Homeland Security Plum Island Facility, Greenport, NY. More information available from US FCC via Universal Licensing System and Coast Guard Vessel Documentation Center.

Last reported at 2017-Dec-16 14:17 UTC. Time now 2017-Dec-16 16:41 UTC.
Position N 41°11' W 072°16'.

Type: Passenger vessel. MMSI: 367107990.

Date/timePositionNaut miles runAvg speedWind from/ knotsBaromVisibWave heightAir tempDewpointWater temp
2017-Dec-16 14:17N 41°11' W 072°16'518.8
2017-Dec-16 14:00N 41°15' W 072°21'1 2.1
2017-Dec-16 13:31N 41°16' W 072°21'8 0.6
2017-Dec-16 00:53N 41°10' W 072°13'821.1
2017-Dec-16 00:30N 41°16' W 072°20'4 7.2
2017-Dec-16 00:00N 41°13' W 072°17'1 0.5
2017-Dec-15 22:24N 41°13' W 072°16'613.8
2017-Dec-15 22:00N 41°17' W 072°21'510.1
2017-Dec-15 21:30N 41°13' W 072°17'0 0.3
2017-Dec-15 20:39N 41°13' W 072°17'321.8
2017-Dec-15 20:30N 41°15' W 072°20'2 4.8
2017-Dec-15 20:00N 41°13' W 072°17'5 0.3
2017-Dec-15 02:16N 41°09' W 072°14'4 2.4
2017-Dec-15 00:42N 41°13' W 072°16'421.5
2017-Dec-15 00:30N 41°15' W 072°20'8 0.6
2017-Dec-14 11:42N 41°09' W 072°14'  
2017-Dec-10 19:27N 41°10' W 072°13'819.2
2017-Dec-10 19:00N 41°17' W 072°21'5 9.8
2017-Dec-10 18:30N 41°12' W 072°17'4 1.0
2017-Dec-10 14:19N 41°10' W 072°12'618.9
2017-Dec-10 14:00N 41°13' W 072°19'4 7.5
2017-Dec-10 13:30N 41°17' W 072°21'5 2.7
2017-Dec-10 11:34N 41°13' W 072°16'221.6
2017-Dec-10 11:30N 41°14' W 072°18'1 2.3
2017-Dec-10 11:01N 41°15' W 072°19'2 0.2
2017-Dec-09 23:17N 41°13' W 072°17'517.6
2017-Dec-09 23:01N 41°17' W 072°21'2 3.7
2017-Dec-09 22:30N 41°15' W 072°20'7 2.2
2017-Dec-09 19:20N 41°10' W 072°13'618.7
2017-Dec-09 19:00N 41°14' W 072°19'1 2.3
2017-Dec-09 18:30N 41°15' W 072°20'7 1.7
2017-Dec-09 14:18N 41°10' W 072°13'620.1
2017-Dec-09 14:00N 41°14' W 072°19'3 5.7
2017-Dec-09 13:30N 41°17' W 072°21'4 1.9
2017-Dec-09 11:31N 41°14' W 072°18'4 7.1
2017-Dec-09 11:00N 41°16' W 072°21'4 0.4
2017-Dec-09 00:34N 41°14' W 072°18'122.4
2017-Dec-09 00:31N 41°14' W 072°19'1 2.5
2017-Dec-09 00:00N 41°14' W 072°17'0 0.1
2017-Dec-08 22:05N 41°14' W 072°17'223.3
2017-Dec-08 21:59N 41°15' W 072°19'3 5.4
2017-Dec-08 21:30N 41°13' W 072°17'1 1.3
2017-Dec-08 20:34N 41°14' W 072°18'122.5
2017-Dec-08 20:30N 41°15' W 072°19'2 3.5
2017-Dec-08 20:00N 41°14' W 072°18'5 0.3
2017-Dec-08 00:53N 41°10' W 072°12'822.2
2017-Dec-08 00:31N 41°16' W 072°21'5 9.8
2017-Dec-08 00:00N 41°12' W 072°16'  
Track history (hours):
 
Tides and Currents Weather Stations Pressure Air Temp Water Temp Dewpoint Dewpoint Depression Visibility Wind Speed Wind Dir Waves Ship Positions

Jj Callis

Owner: Department of Homeland Security Plum Island Facility, Greenport, NY. More information available from US FCC via Universal Licensing System and Coast Guard Vessel Documentation Center.

Last reported at 2017-Dec-16 14:17 UTC. Time now 2017-Dec-16 16:41 UTC.
Position N 41°11' W 072°16'.

Type: Passenger vessel. MMSI: 367107990.

Date/timePositionNaut miles runAvg speedWind from/ knotsBaromVisibWave heightAir tempDewpointWater temp
2017-Dec-16 14:17N 41°11' W 072°16'518.8
2017-Dec-16 14:00N 41°15' W 072°21'1 2.1
2017-Dec-16 13:31N 41°16' W 072°21'8 0.6
2017-Dec-16 00:53N 41°10' W 072°13'821.1
2017-Dec-16 00:30N 41°16' W 072°20'4 7.2
2017-Dec-16 00:00N 41°13' W 072°17'1 0.5
2017-Dec-15 22:24N 41°13' W 072°16'613.8
2017-Dec-15 22:00N 41°17' W 072°21'510.1
2017-Dec-15 21:30N 41°13' W 072°17'0 0.3
2017-Dec-15 20:39N 41°13' W 072°17'321.8
2017-Dec-15 20:30N 41°15' W 072°20'2 4.8
2017-Dec-15 20:00N 41°13' W 072°17'5 0.3
2017-Dec-15 02:16N 41°09' W 072°14'4 2.4
2017-Dec-15 00:42N 41°13' W 072°16'421.5
2017-Dec-15 00:30N 41°15' W 072°20'8 0.6
2017-Dec-14 11:42N 41°09' W 072°14'  
2017-Dec-10 19:27N 41°10' W 072°13'819.2
2017-Dec-10 19:00N 41°17' W 072°21'5 9.8
2017-Dec-10 18:30N 41°12' W 072°17'4 1.0
2017-Dec-10 14:19N 41°10' W 072°12'618.9
2017-Dec-10 14:00N 41°13' W 072°19'4 7.5
2017-Dec-10 13:30N 41°17' W 072°21'5 2.7
2017-Dec-10 11:34N 41°13' W 072°16'221.6
2017-Dec-10 11:30N 41°14' W 072°18'1 2.3
2017-Dec-10 11:01N 41°15' W 072°19'2 0.2
2017-Dec-09 23:17N 41°13' W 072°17'517.6
2017-Dec-09 23:01N 41°17' W 072°21'2 3.7
2017-Dec-09 22:30N 41°15' W 072°20'7 2.2
2017-Dec-09 19:20N 41°10' W 072°13'618.7
2017-Dec-09 19:00N 41°14' W 072°19'1 2.3
2017-Dec-09 18:30N 41°15' W 072°20'7 1.7
2017-Dec-09 14:18N 41°10' W 072°13'620.1
2017-Dec-09 14:00N 41°14' W 072°19'3 5.7
2017-Dec-09 13:30N 41°17' W 072°21'4 1.9
2017-Dec-09 11:31N 41°14' W 072°18'4 7.1
2017-Dec-09 11:00N 41°16' W 072°21'4 0.4
2017-Dec-09 00:34N 41°14' W 072°18'122.4
2017-Dec-09 00:31N 41°14' W 072°19'1 2.5
2017-Dec-09 00:00N 41°14' W 072°17'0 0.1
2017-Dec-08 22:05N 41°14' W 072°17'223.3
2017-Dec-08 21:59N 41°15' W 072°19'3 5.4
2017-Dec-08 21:30N 41°13' W 072°17'1 1.3
2017-Dec-08 20:34N 41°14' W 072°18'122.5
2017-Dec-08 20:30N 41°15' W 072°19'2 3.5
2017-Dec-08 20:00N 41°14' W 072°18'5 0.3
2017-Dec-08 00:53N 41°10' W 072°12'822.2
2017-Dec-08 00:31N 41°16' W 072°21'5 9.8
2017-Dec-08 00:00N 41°12' W 072°16'  

Dump ship's entire track history